• Join FlightAware (Why Join?)
  • Login
  • US Flag 
Gobble Gobble! 
08:52PM EST


 

Airport Tracker/Info


-or-


 

Live Flight TrackerFlight Track Log ✈ UAL4234 ✈ 02-May-2013 ✈ KIAH - KCLT

Flight Track Log - Related Links

Times and Time Zones

All times are in EDT time to prevent confusion due to time zone crossing. See the UAL4234 flight status page for this flight to view local times or setup timezone preferences in your user account.

Time Position Orientation Groundspeed Altitude Reporting Facility
EDT Latitude Longitude Course Direction KTS MPH feet Rate Location/Type
09:17AM 29.9506 -95.3353 90° East 176 203 800  Level Houston Center
09:18AM 29.8814 -95.2472 132° Southeast 271 312 3,500 1,440 Climbing Houston Center
09:19AM 29.8611 -95.2208 132° Southeast 256 295 4,000 1,980 Climbing Houston Center
09:19AM 29.8497 -95.1764 106° East 278 320 5,400 2,460 Climbing Houston Center
09:20AM 29.9833 -94.8460 90° East  Level FlightAware Approximate
09:20AM 29.8442 -95.1331 98° East 278 320 6,600  Level Houston Center
09:20AM 29.8358 -95.0744 99° East 286 329 8,200 2,400 Climbing Houston Center
09:21AM 29.9834 -94.7242 90° East  Level FlightAware Approximate
09:21AM 29.8386 -95.0419 84° East 283 326 9,100  Level Houston Center
09:22AM 29.9833 -94.6023 90° East  Level FlightAware Approximate
09:22AM 29.8583 -94.9517 76° East 288 331 10,700  Level Houston Center
09:23AM 29.8861 -94.8219 76° East 346 398 11,700 1,080 Climbing Houston Center
09:24AM 29.9111 -94.7056 76° East 371 427 13,000 1,260 Climbing Houston Center
09:25AM 29.9364 -94.5861 76° East 382 440 14,400 1,200 Climbing Houston Center
09:26AM 29.9592 -94.4761 77° East 392 451 15,500 1,440 Climbing Houston Center
09:27AM 29.9906 -94.3292 76° East 395 455 17,400 1,800 Climbing Houston Center
09:28AM 30.0089 -94.2064 80° East 390 449 19,200 1,680 Climbing Houston Center
09:29AM 30.0233 -94.0856 82° East 383 441 20,900 1,680 Climbing Houston Center
09:30AM 30.0378 -93.9653 82° East 381 438 22,700 1,680 Climbing Houston Center
09:31AM 30.0525 -93.8464 82° East 379 436 24,400 1,560 Climbing Houston Center
09:32AM 30.0672 -93.7300 82° East 371 427 25,900 1,620 Climbing Houston Center
09:33AM 30.0833 -93.5931 82° East 364 419 27,800 1,440 Climbing Houston Center
09:34AM 30.1219 -93.4864 67° East 368 423 28,900 1,020 Climbing Houston Center
09:35AM 30.1669 -93.3819 63° Northeast 370 426 30,000 1,140 Climbing Houston Center
09:36AM 30.2131 -93.2778 63° Northeast 370 426 31,300 1,320 Climbing Houston Center
09:37AM 30.2575 -93.1747 63° Northeast 364 419 32,800 1,260 Climbing Houston Center
09:38AM 30.3111 -93.0525 63° Northeast 359 413 34,000 1,020 Climbing Houston Center
09:39AM 30.3553 -92.9503 63° Northeast 359 413 34,900 480 Climbing Houston Center
09:40AM 30.3997 -92.8453 64° Northeast 365 420 35,000  Climbing Houston Center
09:41AM 30.4489 -92.7331 63° Northeast 388 447 35,000  Level Houston Center
09:42AM 30.5033 -92.6050 64° Northeast 412 474 35,000  Level Houston Center
09:43AM 30.5561 -92.4808 64° Northeast 431 496 35,000  Level Houston Center
09:45AM 30.6111 -92.3536 63° Northeast 442 509 35,000  Level Houston Center
09:46AM 30.6650 -92.2264 64° Northeast 443 510 35,000  Level Houston Center
09:47AM 30.7300 -92.0731 64° Northeast 444 511 35,000  Level Houston Center
09:48AM 30.7839 -91.9456 64° Northeast 444 511 35,000  Level Houston Center
09:49AM 30.8381 -91.8181 64° Northeast 442 509 35,000  Level Houston Center
09:50AM 30.8928 -91.6892 64° Northeast 446 513 35,000  Level Houston Center
09:51AM 30.9469 -91.5592 64° Northeast 448 516 35,000  Level Houston Center
09:52AM 31.0014 -91.4275 64° Northeast 452 520 35,000  Level Houston Center
09:53AM 31.0589 -91.2889 64° Northeast 452 520 35,000  Level Houston Center
09:54AM 31.1139 -91.1572 64° Northeast 450 518 35,000 480 Level Houston Center
09:55AM 31.1772 -91.0011 65° Northeast 444 511 36,100 900 Climbing Houston Center
09:56AM 31.2272 -90.8769 65° Northeast 429 494 36,900 420 Climbing Houston Center
09:57AM 31.2778 -90.7517 65° Northeast 426 490 37,000  Climbing Houston Center
09:58AM 31.3306 -90.6222 64° Northeast 435 501 37,000  Level Houston Center
09:59AM 31.3847 -90.4900 64° Northeast 447 514 37,000  Level Houston Center
10:00AM 31.4392 -90.3575 64° Northeast 450 518 37,000  Level Houston Center
10:01AM 31.4917 -90.2239 65° Northeast 451 519 37,000  Level Houston Center
10:02AM 31.5558 -90.0661 64° Northeast 448 516 37,000  Level Houston Center
10:03AM 31.6083 -89.9328 65° Northeast 449 517 37,000  Level Houston Center
10:04AM 31.6611 -89.7997 65° Northeast 450 518 37,000  Level Houston Center
10:05AM 31.7078 -89.6811 65° Northeast 445 512 37,000  Level Memphis Center
10:06AM 31.7611 -89.5511 64° Northeast 440 506 37,000  Level Memphis Center
10:07AM 31.8125 -89.4136 66° East 445 512 37,000  Level Memphis Center
10:08AM 31.8656 -89.2786 65° Northeast 445 512 37,000  Level Memphis Center
10:09AM 31.9144 -89.1508 66° East 437 503 37,000  Level Memphis Center
10:10AM 31.9756 -88.9958 65° Northeast 448 516 37,000  Level Memphis Center
10:11AM 32.0322 -88.8553 65° Northeast 458 527 37,000  Level Memphis Center
10:14AM 32.1806 -88.4681 66° East 447 514 37,000  Level Atlanta Center
10:15AM 32.2333 -88.3308 66° East 447 514 37,000  Level Atlanta Center
10:16AM 32.2861 -88.1933 66° East 452 520 37,000  Level Atlanta Center
10:17AM 32.3386 -88.0556 66° East 452 520 37,000  Level Atlanta Center
10:18AM 32.3911 -87.9153 66° East 452 520 37,000  Level Atlanta Center
10:19AM 32.4436 -87.7750 66° East 452 520 37,000  Level Atlanta Center
10:20AM 32.4958 -87.6319 67° East 452 520 37,000  Level Atlanta Center
10:21AM 32.5478 -87.4911 66° East 458 527 37,000  Level Atlanta Center
10:22AM 32.5975 -87.3550 67° East 458 527 37,000  Level Atlanta Center
10:23AM 32.6514 -87.2139 66° East 458 527 37,000  Level Atlanta Center
10:24AM 32.7008 -87.0750 67° East 458 527 37,000  Level Atlanta Center
10:25AM 32.7522 -86.9336 67° East 452 520 37,000  Level Atlanta Center
10:26AM 32.8056 -86.7869 67° East 457 526 37,000  Level Atlanta Center
10:27AM 32.8522 -86.6550 67° East 452 520 37,000  Level Atlanta Center
10:28AM 32.9053 -86.5106 66° East 461 531 37,000  Level Atlanta Center
10:29AM 32.9561 -86.3658 67° East 461 531 37,000  Level Atlanta Center
10:30AM 33.0044 -86.2311 67° East 451 519 37,000  Level Atlanta Center
10:31AM 33.0550 -86.0883 67° East 451 519 37,000  Level Atlanta Center
10:32AM 33.1053 -85.9433 67° East 456 525 37,000  Level Atlanta Center
10:33AM 33.1553 -85.8056 67° East 451 519 37,000  Level Atlanta Center
10:34AM 33.2053 -85.6700 66° East 451 519 37,000  Level Atlanta Center
10:35AM 33.2550 -85.5292 67° East 451 519 37,000  Level Atlanta Center
10:36AM 33.3028 -85.3858 68° East 451 519 37,000  Level Atlanta Center
10:37AM 33.3456 -85.2622 67° East 451 519 37,000  Level Atlanta Center
10:38AM 33.3928 -85.1261 67° East 445 512 37,000  Level Atlanta Center
10:39AM 33.4419 -84.9847 67° East 445 512 37,000 -300 Level Atlanta Center
10:40AM 33.4889 -84.8433 68° East 454 522 36,500 -720 Descending Atlanta Center
10:41AM 33.5358 -84.7042 68° East 449 517 35,600 -780 Descending Atlanta Center
10:42AM 33.5822 -84.5625 69° East 449 517 35,000 -300 Descending Atlanta Center
10:43AM 33.6289 -84.4106 70° East 449 517 35,000  Level Atlanta Center
10:44AM 33.6731 -84.2686 69° East 449 517 35,000  Level Atlanta Center
10:45AM 33.7108 -84.1361 71° East 454 522 35,000  Level Atlanta Center
10:46AM 33.7525 -83.9939 71° East 454 522 35,000  Level Atlanta Center
10:47AM 33.7961 -83.8389 71° East 443 510 35,000  Level Atlanta Center
10:48AM 33.8356 -83.6961 72° East 443 510 35,000 -240 Level Atlanta Center
10:49AM 33.8747 -83.5533 72° East 443 510 34,600 -660 Descending Atlanta Center
10:50AM 33.9136 -83.4106 72° East 443 510 33,700 -960 Descending Atlanta Center
10:51AM 33.9547 -83.2700 71° East 441 507 32,700 -960 Descending Atlanta Center
10:52AM 33.9911 -83.1219 73° East 449 517 31,800 -900 Descending Atlanta Center
10:53AM 34.0236 -83.0086 71° East 449 517 31,000 -960 Descending Atlanta Center
10:54AM 34.0742 -82.8325 71° East 462 532 29,900 -1,020 Descending Atlanta Center
10:55AM 34.1103 -82.6839 74° East 457 526 29,000 -900 Descending Atlanta Center
10:56AM 34.1525 -82.5378 71° East 462 532 28,100 -1,020 Descending Atlanta Center
10:57AM 34.1900 -82.3839 74° East 462 532 27,000 -1,800 Descending Atlanta Center
10:58AM 34.2319 -82.2372 71° East 462 532 24,600 -2,340 Descending Atlanta Center
10:59AM 34.2883 -82.1028 63° Northeast 457 526 22,400 -2,280 Descending Atlanta Center
11:00AM 34.3700 -82.0028 45° Northeast 428 493 20,100 -2,280 Descending Atlanta Center
11:01AM 34.4478 -81.9053 46° Northeast 417 480 17,900 -2,340 Descending Atlanta Center
11:02AM 34.5253 -81.8075 46° Northeast 398 458 15,500 -2,460 Descending Atlanta Center
11:02AM 34.5436 -81.7869 43° Northeast 388 447 14,800 -2,400 Descending Atlanta Center
11:03AM 34.5947 -81.7172 48° Northeast 376 433 13,100 -2,100 Descending Atlanta Center
11:04AM 34.6700 -81.6294 44° Northeast 371 427 11,200 -1,140 Descending Atlanta Center
11:05AM 34.7331 -81.5467 47° Northeast 350 403 10,900 -180 Descending Atlanta Center
11:06AM 34.7900 -81.4717 47° Northeast 311 358 10,900 -480 Level Atlanta Center
11:07AM 34.8236 -81.3844 65° Northeast 282 325 10,000 -1,200 Descending Atlanta Center
11:08AM 34.8531 -81.3000 67° East 276 318 8,600 -1,200 Descending Atlanta Center
11:09AM 34.8825 -81.2156 67° East 271 312 7,700 -1,020 Descending Atlanta Center
11:10AM 34.9097 -81.1311 69° East 258 297 6,500 -1,500 Descending Atlanta Center
11:11AM 34.9372 -81.0542 66° East 251 289 4,800 -1,200 Descending Atlanta Center
11:12AM 34.9664 -80.9694 67° East 244 281 4,100 -360 Descending Atlanta Center
11:13AM 35.0239 -80.9394 23° Northeast 265 305 4,100 -660 Level Atlanta Center
11:14AM 35.0972 -80.9469 355° North 265 305 2,800 -1,320 Descending Atlanta Center